createdAt,value
2018-09-25T00:00:13.445Z,22.39
2018-09-25T00:01:13.477Z,22.48
2018-09-25T00:02:13.578Z,22.42
2018-09-25T00:03:13.543Z,22.48
2018-09-25T00:04:13.626Z,22.51
2018-09-25T00:05:13.668Z,22.41
2018-09-25T00:06:13.987Z,22.36
2018-09-25T00:07:13.721Z,22.38
2018-09-25T00:08:13.758Z,22.38
2018-09-25T00:09:13.717Z,22.39
2018-09-25T00:10:14.209Z,22.46
2018-09-25T00:11:13.842Z,22.39
2018-09-25T00:12:13.873Z,22.41
2018-09-25T00:13:14.142Z,22.44
2018-09-25T00:14:13.871Z,22.33
2018-09-25T00:15:13.923Z,22.44
2018-09-25T00:16:13.979Z,22.35
2018-09-25T00:17:14.016Z,22.36
2018-09-25T00:18:14.009Z,22.39
2018-09-25T00:19:14.103Z,22.38
2018-09-25T00:20:15.411Z,22.42
2018-09-25T00:21:14.138Z,22.39
2018-09-25T00:22:14.166Z,22.41
2018-09-25T00:23:14.232Z,22.45
2018-09-25T00:24:14.176Z,22.41
2018-09-25T00:25:14.260Z,22.38
2018-09-25T00:26:14.300Z,22.41
2018-09-25T00:27:14.563Z,22.42
2018-09-25T00:28:14.354Z,22.41
2018-09-25T00:30:14.406Z,22.38
2018-09-25T00:31:14.436Z,22.38
2018-09-25T00:32:14.472Z,22.41
2018-09-25T00:33:14.447Z,22.38
2018-09-25T00:34:14.780Z,22.39
2018-09-25T00:35:14.559Z,22.42
2018-09-25T00:36:14.543Z,22.44
2018-09-25T00:37:14.565Z,22.38
2018-09-25T00:38:14.647Z,22.33
2018-09-25T00:39:14.677Z,22.42
2018-09-25T00:40:14.714Z,22.36
2018-09-25T00:41:14.987Z,22.39
2018-09-25T00:42:14.721Z,22.38
2018-09-25T00:43:14.822Z,22.38
2018-09-25T00:44:14.784Z,22.38
2018-09-25T00:45:14.857Z,22.44
2018-09-25T00:46:14.844Z,22.44
2018-09-25T00:47:14.928Z,22.48
2018-09-25T00:48:15.198Z,22.44
2018-09-25T00:50:15.013Z,22.42
2018-09-25T00:51:15.038Z,22.33
2018-09-25T00:52:15.177Z,22.38
2018-09-25T00:53:15.100Z,22.35
2018-09-25T00:54:15.116Z,22.45
2018-09-25T00:55:15.425Z,22.35
2018-09-25T00:57:15.222Z,22.46
2018-09-25T00:58:15.252Z,22.42
2018-09-25T00:59:15.293Z,22.44
2018-09-25T01:00:15.310Z,22.41
2018-09-25T01:01:15.645Z,22.39
2018-09-25T01:02:15.377Z,22.39
2018-09-25T01:03:15.402Z,22.33
2018-09-25T01:04:15.438Z,22.30
2018-09-25T01:05:15.465Z,22.38
2018-09-25T01:06:15.442Z,22.35
2018-09-25T01:07:15.773Z,22.35
2018-09-25T01:08:15.554Z,22.27
2018-09-25T01:09:15.533Z,22.33
2018-09-25T01:10:15.567Z,22.29
2018-09-25T01:11:15.604Z,22.26
2018-09-25T01:12:15.632Z,22.26
2018-09-25T01:13:16.105Z,22.30
2018-09-25T01:14:15.690Z,22.21
2018-09-25T01:15:15.765Z,22.23
2018-09-25T01:16:15.746Z,22.24
2018-09-25T01:17:15.776Z,22.26
2018-09-25T01:18:15.855Z,22.20
2018-09-25T01:19:15.977Z,22.21
2018-09-25T01:20:16.171Z,22.20
2018-09-25T01:21:15.903Z,22.23
2018-09-25T01:22:15.926Z,22.24
2018-09-25T01:23:16.012Z,22.26
2018-09-25T01:24:15.994Z,22.19
2018-09-25T01:25:16.018Z,22.21
2018-09-25T01:26:16.102Z,22.17
2018-09-25T01:27:16.437Z,22.27
2018-09-25T01:28:16.164Z,22.23
2018-09-25T01:29:16.194Z,22.23
2018-09-25T01:30:16.218Z,22.23
2018-09-25T01:31:16.253Z,22.23
2018-09-25T01:32:16.279Z,22.19
2018-09-25T01:33:16.265Z,22.20
2018-09-25T01:34:16.591Z,22.19
2018-09-25T01:35:16.369Z,22.20
2018-09-25T01:36:16.353Z,22.23
2018-09-25T01:37:16.386Z,22.14
2018-09-25T01:38:16.466Z,22.08
2018-09-25T01:39:16.497Z,22.06
2018-09-25T01:40:16.518Z,22.01
2018-09-25T01:41:16.805Z,21.86
2018-09-25T01:42:16.588Z,21.82
2018-09-25T01:43:16.616Z,21.79
2018-09-25T01:44:16.645Z,21.70
2018-09-25T01:45:16.677Z,21.67
2018-09-25T01:46:16.708Z,21.63
2018-09-25T01:47:16.733Z,21.52
2018-09-25T01:48:17.017Z,21.46
2018-09-25T01:49:16.797Z,21.46
2018-09-25T01:50:16.772Z,21.38
2018-09-25T01:51:16.853Z,21.36
2018-09-25T01:52:16.887Z,21.31
2018-09-25T01:53:16.917Z,21.22
2018-09-25T01:54:16.948Z,21.31
2018-09-25T01:55:17.224Z,21.24
2018-09-25T01:56:16.952Z,21.18
2018-09-25T01:57:17.033Z,21.13
2018-09-25T01:58:17.018Z,21.16
2018-09-25T01:59:17.092Z,21.19
2018-09-25T02:00:17.075Z,21.11
2018-09-25T02:01:17.155Z,21.09
2018-09-25T02:02:17.433Z,21.03
2018-09-25T02:03:17.173Z,21.09
2018-09-25T02:04:17.245Z,21.05
2018-09-25T02:05:17.224Z,20.97
2018-09-25T02:06:17.312Z,21.03
2018-09-25T02:07:17.336Z,20.88
2018-09-25T02:08:17.315Z,20.85
2018-09-25T02:09:17.654Z,20.98
2018-09-25T02:10:17.422Z,20.88
2018-09-25T02:11:17.469Z,20.85
2018-09-25T02:12:17.432Z,20.87
2018-09-25T02:13:17.513Z,20.83
2018-09-25T02:14:17.544Z,20.76
2018-09-25T02:15:17.589Z,20.73
2018-09-25T02:16:17.853Z,20.73
2018-09-25T02:17:17.639Z,20.72
2018-09-25T02:18:17.628Z,20.71
2018-09-25T02:19:17.692Z,20.66
2018-09-25T02:20:17.724Z,20.73
2018-09-25T02:21:17.764Z,20.63
2018-09-25T02:22:17.797Z,20.71
2018-09-25T02:23:18.066Z,20.61
2018-09-25T02:24:17.847Z,20.63
2018-09-25T02:25:18.023Z,20.72
2018-09-25T02:26:17.863Z,20.66
2018-09-25T02:27:17.932Z,20.73
2018-09-25T02:28:17.909Z,20.72
2018-09-25T02:29:17.948Z,20.60
2018-09-25T02:30:18.272Z,20.72
2018-09-25T02:31:18.051Z,20.75
2018-09-25T02:32:18.034Z,20.71
2018-09-25T02:33:18.115Z,20.63
2018-09-25T02:34:18.088Z,20.71
2018-09-25T02:35:18.167Z,20.69
2018-09-25T02:36:18.197Z,20.61
2018-09-25T02:37:18.479Z,20.71
2018-09-25T02:38:18.214Z,20.68
2018-09-25T02:39:18.290Z,20.73
2018-09-25T02:40:18.272Z,20.60
2018-09-25T02:41:18.345Z,20.66
2018-09-25T02:42:18.375Z,20.64
2018-09-25T02:43:18.405Z,20.73
2018-09-25T02:44:18.692Z,20.68
2018-09-25T02:45:18.462Z,20.61
2018-09-25T02:46:18.500Z,20.64
2018-09-25T02:47:18.529Z,20.60
2018-09-25T02:48:18.509Z,20.60
2018-09-25T02:49:18.587Z,20.58
2018-09-25T02:50:18.867Z,20.57
2018-09-25T02:51:18.650Z,20.60
2018-09-25T02:52:18.676Z,20.63
2018-09-25T02:53:18.653Z,20.48
2018-09-25T02:54:18.728Z,20.46
2018-09-25T02:55:18.764Z,20.44
2018-09-25T02:56:19.091Z,20.41
2018-09-25T02:57:18.824Z,20.54
2018-09-25T02:58:18.801Z,20.46
2018-09-25T02:59:18.881Z,20.50
2018-09-25T03:00:18.858Z,20.46
2018-09-25T03:01:18.947Z,20.42
2018-09-25T03:02:19.215Z,20.42
2018-09-25T03:03:19.004Z,20.44
2018-09-25T03:04:18.983Z,20.35
2018-09-25T03:05:19.061Z,20.34
2018-09-25T03:06:19.031Z,20.35
2018-09-25T03:07:19.116Z,20.38
2018-09-25T03:08:19.090Z,20.35
2018-09-25T03:11:19.480Z,20.37
2018-09-25T03:12:19.257Z,20.31
2018-09-25T03:13:19.287Z,20.33
2018-09-25T03:14:19.269Z,20.31
2018-09-25T03:15:19.346Z,20.25
2018-09-25T03:16:19.376Z,20.27
2018-09-25T03:17:19.660Z,20.20
2018-09-25T03:18:19.385Z,20.19
2018-09-25T03:19:19.474Z,20.25
2018-09-25T03:20:19.443Z,20.13
2018-09-25T03:21:19.474Z,20.12
2018-09-25T03:22:19.556Z,20.17
2018-09-25T03:23:19.834Z,20.13
2018-09-25T03:24:19.566Z,20.16
2018-09-25T03:25:19.637Z,20.16
2018-09-25T03:26:19.673Z,20.12
2018-09-25T03:27:19.701Z,20.04
2018-09-25T03:28:19.677Z,20.07
2018-09-25T03:29:19.708Z,20.04
2018-09-25T03:30:20.038Z,20.02
2018-09-25T03:31:19.820Z,20.07
2018-09-25T03:32:19.849Z,20.02
2018-09-25T03:33:19.829Z,20.02
2018-09-25T03:34:19.906Z,19.92
2018-09-25T03:35:20.032Z,19.94
2018-09-25T03:36:19.958Z,20.02
2018-09-25T03:37:20.239Z,19.90
2018-09-25T03:38:19.980Z,19.94
2018-09-25T03:39:20.052Z,19.92
2018-09-25T03:40:20.025Z,19.89
2018-09-25T03:41:20.104Z,19.87
2018-09-25T03:42:20.087Z,19.94
2018-09-25T03:43:20.168Z,19.89
2018-09-25T03:44:20.501Z,19.94
2018-09-25T03:45:20.169Z,19.90
2018-09-25T03:46:20.203Z,19.94
2018-09-25T03:47:20.381Z,19.92
2018-09-25T03:48:20.309Z,19.82
2018-09-25T03:49:20.286Z,19.82
2018-09-25T03:50:20.320Z,19.82
2018-09-25T03:51:20.647Z,19.79
2018-09-25T03:52:20.430Z,19.80
2018-09-25T03:53:20.401Z,19.85
2018-09-25T03:54:20.433Z,19.85
2018-09-25T03:55:20.468Z,19.78
2018-09-25T03:56:20.493Z,19.79
2018-09-25T03:57:20.572Z,19.82
2018-09-25T03:58:20.905Z,19.79
2018-09-25T03:59:20.630Z,19.78
2018-09-25T04:00:20.612Z,19.86
2018-09-25T04:01:20.644Z,19.75
2018-09-25T04:02:20.663Z,19.70
2018-09-25T04:03:20.697Z,19.86
2018-09-25T04:04:20.777Z,19.72
2018-09-25T04:05:21.059Z,19.72
2018-09-25T04:06:20.926Z,19.82
2018-09-25T04:07:20.869Z,19.79
2018-09-25T04:08:20.857Z,19.75
2018-09-25T04:09:20.870Z,19.68
2018-09-25T04:10:20.899Z,19.65
2018-09-25T04:11:20.974Z,19.70
2018-09-25T04:12:21.253Z,19.72
2018-09-25T04:13:21.080Z,19.60
2018-09-25T04:14:21.015Z,19.72
2018-09-25T04:15:21.093Z,19.70
2018-09-25T04:16:21.117Z,19.65
2018-09-25T04:17:21.103Z,19.71
2018-09-25T04:18:21.176Z,19.71
2018-09-25T04:19:21.464Z,19.67
2018-09-25T04:20:21.183Z,19.65
2018-09-25T04:21:21.361Z,19.75
2018-09-25T04:22:21.240Z,19.67
2018-09-25T04:23:21.319Z,19.62
2018-09-25T04:24:21.297Z,19.68
2018-09-25T04:25:21.330Z,19.64
2018-09-25T04:26:21.406Z,19.61
2018-09-25T04:27:21.441Z,19.60
2018-09-25T04:28:21.466Z,19.58
2018-09-25T04:29:21.445Z,19.58
2018-09-25T04:30:21.470Z,19.57
2018-09-25T04:31:21.559Z,19.61
2018-09-25T04:32:21.883Z,19.65
2018-09-25T04:33:21.568Z,19.62
2018-09-25T04:34:21.601Z,19.62
2018-09-25T04:35:21.665Z,19.53
2018-09-25T04:36:21.657Z,19.53
2018-09-25T04:37:21.740Z,19.52
2018-09-25T04:38:22.007Z,19.55
2018-09-25T04:39:21.736Z,19.45
2018-09-25T04:40:21.806Z,19.53
2018-09-25T04:41:21.840Z,19.58
2018-09-25T04:42:21.819Z,19.45
2018-09-25T04:43:21.894Z,19.55
2018-09-25T04:44:22.229Z,19.42
2018-09-25T04:45:21.900Z,19.49
2018-09-25T04:46:21.936Z,19.45
2018-09-25T04:47:22.008Z,19.47
2018-09-25T04:48:22.043Z,19.45
2018-09-25T04:49:22.072Z,19.47
2018-09-25T04:50:22.050Z,19.40
2018-09-25T04:51:22.377Z,19.46
2018-09-25T04:52:22.159Z,19.43
2018-09-25T04:53:22.139Z,19.39
2018-09-25T04:54:22.169Z,19.38
2018-09-25T04:55:22.239Z,19.35
2018-09-25T04:56:22.322Z,19.39
2018-09-25T04:57:22.297Z,19.27
2018-09-25T04:58:22.578Z,19.28
2018-09-25T04:59:22.311Z,19.34
2018-09-25T05:00:22.335Z,19.31
2018-09-25T05:01:22.413Z,19.28
2018-09-25T05:02:22.445Z,19.25
2018-09-25T05:03:22.474Z,19.28
2018-09-25T05:04:22.495Z,19.28
2018-09-25T05:05:22.777Z,19.25
2018-09-25T05:06:22.504Z,19.21
2018-09-25T05:07:22.590Z,19.28
2018-09-25T05:08:22.608Z,19.16
2018-09-25T05:09:22.595Z,19.15
2018-09-25T05:10:22.613Z,19.20
2018-09-25T05:11:22.700Z,19.17
2018-09-25T05:12:23.027Z,19.15
2018-09-25T05:13:22.751Z,19.10
2018-09-25T05:14:22.786Z,19.13
2018-09-25T05:15:22.815Z,19.17
2018-09-25T05:16:22.790Z,19.13
2018-09-25T05:17:22.866Z,19.20
2018-09-25T05:18:22.899Z,19.13
2018-09-25T05:19:22.934Z,19.12
2018-09-25T05:20:22.951Z,19.07
2018-09-25T05:21:22.981Z,19.07
2018-09-25T05:22:22.964Z,19.06
2018-09-25T05:23:23.098Z,19.13
2018-09-25T05:24:23.020Z,19.09
2018-09-25T05:25:23.346Z,19.07
2018-09-25T05:26:23.074Z,19.09
2018-09-25T05:27:23.105Z,19.09
2018-09-25T05:28:23.176Z,19.09
2018-09-25T05:29:23.156Z,19.07
2018-09-25T05:30:23.240Z,19.09
2018-09-25T05:31:23.271Z,19.16
2018-09-25T05:32:23.300Z,19.12
2018-09-25T05:33:23.275Z,19.10
2018-09-25T05:34:23.301Z,19.12
2018-09-25T05:35:23.382Z,19.17
2018-09-25T05:36:23.359Z,19.17
2018-09-25T05:37:23.432Z,19.20
2018-09-25T05:38:23.721Z,19.31
2018-09-25T05:39:23.498Z,19.25
2018-09-25T05:40:23.526Z,19.23
2018-09-25T05:41:23.496Z,19.27
2018-09-25T05:42:23.528Z,19.32
2018-09-25T05:43:23.604Z,19.27
2018-09-25T05:44:23.589Z,19.40
2018-09-25T05:45:23.661Z,19.38
2018-09-25T05:46:23.640Z,19.42
2018-09-25T05:47:23.853Z,19.40
2018-09-25T05:48:23.962Z,19.47
2018-09-25T05:49:24.176Z,19.42
2018-09-25T05:50:24.110Z,19.47
2018-09-25T05:51:23.931Z,19.50
2018-09-25T05:52:24.396Z,19.55
2018-09-25T05:53:23.976Z,19.55
2018-09-25T05:54:24.030Z,19.52
2018-09-25T05:56:24.518Z,19.67
2018-09-25T05:57:24.313Z,19.62
2018-09-25T05:58:24.000Z,19.61
2018-09-25T05:59:24.061Z,19.62
2018-09-25T06:00:24.038Z,19.76
2018-09-25T06:01:24.067Z,19.65
2018-09-25T06:02:24.150Z,19.68
2018-09-25T06:03:24.448Z,19.70
2018-09-25T06:04:24.152Z,19.75
2018-09-25T06:05:24.181Z,19.76
2018-09-25T06:06:24.206Z,19.65
2018-09-25T06:07:24.293Z,19.76
2018-09-25T06:08:24.315Z,19.80
2018-09-25T06:09:24.350Z,19.75
2018-09-25T06:10:24.627Z,19.80
2018-09-25T06:11:24.411Z,19.80
2018-09-25T06:12:24.399Z,19.82
2018-09-25T06:13:24.459Z,19.80
2018-09-25T06:14:24.459Z,19.82
2018-09-25T06:15:24.470Z,19.87
2018-09-25T06:16:24.519Z,19.80
2018-09-25T06:17:24.835Z,19.83
2018-09-25T06:18:24.605Z,19.89
2018-09-25T06:19:24.635Z,19.92
2018-09-25T06:20:24.623Z,19.92
2018-09-25T06:21:24.687Z,19.90
2018-09-25T06:22:24.735Z,19.92
2018-09-25T06:23:24.743Z,19.92
2018-09-25T06:24:24.771Z,19.95
2018-09-25T06:25:24.758Z,19.90
2018-09-25T06:26:24.781Z,19.90
2018-09-25T06:27:24.859Z,19.94
2018-09-25T06:28:24.886Z,19.92
2018-09-25T06:29:24.874Z,20.02
2018-09-25T06:30:25.199Z,20.07
2018-09-25T06:31:24.977Z,20.05
2018-09-25T06:32:25.005Z,20.04
2018-09-25T06:33:25.035Z,20.01
2018-09-25T06:34:25.112Z,20.04
2018-09-25T06:35:25.095Z,20.15
2018-09-25T06:36:25.118Z,20.04
2018-09-25T06:37:25.190Z,20.13
2018-09-25T06:38:25.125Z,20.15
2018-09-25T06:39:25.211Z,20.16
2018-09-25T06:40:25.228Z,20.13
2018-09-25T06:41:25.215Z,20.13
2018-09-25T06:42:25.239Z,20.22
2018-09-25T06:43:25.622Z,20.17
2018-09-25T06:44:25.300Z,20.15
2018-09-25T06:45:25.372Z,20.17
2018-09-25T06:47:25.489Z,20.27
2018-09-25T06:48:25.418Z,20.27
2018-09-25T06:49:25.444Z,20.23
2018-09-25T06:50:25.521Z,20.23
2018-09-25T06:51:25.542Z,20.30
2018-09-25T06:52:25.528Z,20.31
2018-09-25T06:53:25.554Z,20.35
2018-09-25T06:54:25.589Z,20.26
2018-09-25T06:55:25.668Z,20.30
2018-09-25T06:56:25.694Z,20.38
2018-09-25T06:57:25.673Z,20.38
2018-09-25T06:58:25.700Z,20.33
2018-09-25T06:59:25.783Z,20.42
2018-09-25T07:00:25.808Z,20.31
2018-09-25T07:01:26.149Z,20.40
2018-09-25T07:02:25.862Z,20.40
2018-09-25T07:03:25.896Z,20.48
2018-09-25T07:04:25.931Z,20.37
2018-09-25T07:05:25.954Z,20.48
2018-09-25T07:06:25.989Z,20.51
2018-09-25T07:07:26.018Z,20.51
2018-09-25T07:08:26.059Z,20.37
2018-09-25T07:09:26.026Z,20.42
2018-09-25T07:10:26.306Z,20.54
2018-09-25T07:11:26.129Z,20.53
2018-09-25T07:12:26.117Z,20.42
2018-09-25T07:13:26.136Z,20.56
2018-09-25T07:14:26.527Z,20.58
2018-09-25T07:15:26.244Z,20.57
2018-09-25T07:16:26.281Z,20.60
2018-09-25T07:17:26.293Z,20.63
2018-09-25T07:18:26.330Z,20.60
2018-09-25T07:19:26.360Z,20.64
2018-09-25T07:20:26.394Z,20.71
2018-09-25T07:21:26.424Z,20.69
2018-09-25T07:22:26.398Z,20.75
2018-09-25T07:23:26.479Z,20.61
2018-09-25T07:24:26.532Z,20.78
2018-09-25T07:25:26.485Z,20.72
2018-09-25T07:26:26.516Z,20.66
2018-09-25T07:27:26.845Z,20.69
2018-09-25T07:28:26.575Z,20.69
2018-09-25T07:29:26.599Z,20.73
2018-09-25T07:30:26.634Z,20.78
2018-09-25T07:31:26.724Z,20.78
2018-09-25T07:32:26.696Z,20.82
2018-09-25T07:33:27.017Z,20.82
2018-09-25T07:34:26.745Z,20.83
2018-09-25T07:35:26.826Z,20.79
2018-09-25T07:36:26.826Z,20.79
2018-09-25T07:37:26.898Z,20.85
2018-09-25T07:38:26.860Z,20.87
2018-09-25T07:39:27.242Z,20.83
2018-09-25T07:40:26.923Z,20.87
2018-09-25T07:41:26.960Z,20.83
2018-09-25T07:42:27.026Z,20.88
2018-09-25T07:43:27.060Z,20.87
2018-09-25T07:44:27.040Z,20.88
2018-09-25T07:45:27.369Z,20.91
2018-09-25T07:46:27.098Z,20.94
2018-09-25T07:47:27.175Z,20.97
2018-09-25T07:48:27.205Z,20.85
2018-09-25T07:49:27.193Z,20.98
2018-09-25T07:50:27.268Z,20.96
2018-09-25T07:51:27.295Z,20.94
2018-09-25T07:52:27.570Z,20.96
2018-09-25T07:53:27.353Z,20.96
2018-09-25T07:54:27.386Z,20.93
2018-09-25T07:55:27.422Z,21.00
2018-09-25T07:56:27.391Z,20.93
2018-09-25T07:57:27.467Z,20.98
2018-09-25T07:58:27.499Z,20.96
2018-09-25T07:59:27.886Z,20.98
2018-09-25T08:00:27.559Z,20.98
2018-09-25T08:01:27.541Z,21.01
2018-09-25T08:02:27.567Z,21.05
2018-09-25T08:03:27.657Z,21.09
2018-09-25T08:04:27.672Z,21.06
2018-09-25T08:05:27.651Z,20.98
2018-09-25T08:06:27.986Z,20.98
2018-09-25T08:07:27.766Z,21.05
2018-09-25T08:08:27.749Z,21.12
2018-09-25T08:09:27.819Z,21.08
2018-09-25T08:10:27.805Z,21.05
2018-09-25T08:11:27.888Z,21.05
2018-09-25T08:12:27.861Z,21.03
2018-09-25T08:13:27.951Z,21.05
2018-09-25T08:14:27.968Z,21.15
2018-09-25T08:15:28.068Z,21.09
2018-09-25T08:16:27.981Z,21.16
2018-09-25T08:17:28.011Z,21.11
2018-09-25T08:18:28.041Z,21.22
2018-09-25T08:19:28.380Z,21.13
2018-09-25T08:20:28.148Z,21.19
2018-09-25T08:21:28.124Z,21.16
2018-09-25T08:22:28.157Z,21.21
2018-09-25T08:23:28.237Z,21.16
2018-09-25T08:24:28.266Z,21.26
2018-09-25T08:25:28.244Z,21.27
2018-09-25T08:26:28.977Z,21.26
2018-09-25T08:27:28.360Z,21.22
2018-09-25T08:28:28.336Z,21.24
2018-09-25T08:29:28.368Z,21.30
2018-09-25T08:30:28.450Z,21.33
2018-09-25T08:31:28.475Z,21.26
2018-09-25T08:32:28.458Z,21.24
2018-09-25T08:33:28.793Z,21.30
2018-09-25T08:34:28.509Z,21.33
2018-09-25T08:35:28.594Z,21.28
2018-09-25T08:36:28.622Z,21.38
2018-09-25T08:37:28.966Z,21.33
2018-09-25T08:38:28.697Z,21.31
2018-09-25T08:39:28.932Z,21.37
2018-09-25T08:40:28.994Z,21.34
2018-09-25T08:41:28.829Z,21.37
2018-09-25T08:42:28.750Z,21.38
2018-09-25T08:43:28.825Z,21.36
2018-09-25T08:44:28.819Z,21.42
2018-09-25T08:45:28.835Z,21.36
2018-09-25T08:46:28.928Z,21.37
2018-09-25T08:47:28.952Z,21.40
2018-09-25T08:48:28.978Z,21.38
2018-09-25T08:49:28.957Z,21.46
2018-09-25T08:50:29.040Z,21.45
2018-09-25T08:51:29.022Z,21.51
2018-09-25T08:52:29.093Z,21.46
2018-09-25T08:53:29.402Z,21.43
2018-09-25T08:54:29.107Z,21.48
2018-09-25T08:55:29.139Z,21.49
2018-09-25T08:56:29.165Z,21.46
2018-09-25T08:57:29.195Z,21.56
2018-09-25T08:58:29.281Z,21.48
2018-09-25T08:59:29.574Z,21.48
2018-09-25T09:00:29.284Z,21.49
2018-09-25T09:01:29.365Z,21.55
2018-09-25T09:02:29.342Z,21.56
2018-09-25T09:03:29.431Z,21.56
2018-09-25T09:04:29.403Z,21.55
2018-09-25T09:05:29.431Z,21.56
2018-09-25T09:06:29.511Z,21.55
2018-09-25T09:07:29.492Z,21.56
2018-09-25T09:08:29.663Z,21.58
2018-09-25T09:09:29.556Z,21.61
2018-09-25T09:10:29.631Z,21.64
2018-09-25T09:11:29.913Z,21.66
2018-09-25T09:12:29.688Z,21.67
2018-09-25T09:13:29.680Z,21.61
2018-09-25T09:14:29.755Z,21.66
2018-09-25T09:15:29.775Z,21.64
2018-09-25T09:16:29.756Z,21.63
2018-09-25T09:17:29.836Z,21.66
2018-09-25T09:18:30.117Z,21.70
2018-09-25T09:19:29.903Z,21.68
2018-09-25T09:20:29.929Z,21.68
2018-09-25T09:21:29.912Z,21.75
2018-09-25T09:22:29.987Z,21.70
2018-09-25T09:23:29.970Z,21.70
2018-09-25T09:24:30.043Z,21.70
2018-09-25T09:25:30.031Z,21.71
2018-09-25T09:26:30.059Z,21.73
2018-09-25T09:27:30.134Z,21.71
2018-09-25T09:28:30.170Z,21.77
2018-09-25T09:29:30.151Z,21.75
2018-09-25T09:30:30.179Z,21.73
2018-09-25T09:31:30.510Z,21.68
2018-09-25T09:32:30.281Z,21.83
2018-09-25T09:33:30.320Z,21.83
2018-09-25T09:34:30.298Z,21.85
2018-09-25T09:35:30.382Z,21.68
2018-09-25T09:36:30.357Z,21.82
2018-09-25T09:37:30.384Z,21.86
2018-09-25T09:38:30.472Z,21.79
2018-09-25T09:39:30.497Z,21.90
2018-09-25T09:41:30.743Z,21.82
2018-09-25T09:42:30.612Z,21.85
2018-09-25T09:43:30.621Z,21.90
2018-09-25T09:44:30.948Z,21.86
2018-09-25T09:45:30.631Z,21.90
2018-09-25T09:46:30.722Z,21.91
2018-09-25T09:47:30.743Z,21.91
2018-09-25T09:48:30.720Z,21.91
2018-09-25T09:49:30.795Z,21.96
2018-09-25T09:50:31.156Z,21.83
2018-09-25T09:51:30.855Z,21.79
2018-09-25T09:52:30.840Z,21.81
2018-09-25T09:53:30.865Z,21.94
2018-09-25T09:54:30.949Z,21.86
2018-09-25T09:55:30.983Z,21.90
2018-09-25T09:56:31.333Z,21.94
2018-09-25T09:57:30.989Z,21.98
2018-09-25T09:58:31.020Z,21.98
2018-09-25T09:59:31.100Z,21.90
2018-09-25T10:00:31.132Z,21.93
2018-09-25T10:01:31.104Z,21.94
2018-09-25T10:02:31.139Z,21.91
2018-09-25T10:03:31.474Z,21.89
2018-09-25T10:04:31.197Z,21.98
2018-09-25T10:05:31.293Z,21.99
2018-09-25T10:06:31.259Z,21.91
2018-09-25T10:07:31.349Z,22.02
2018-09-25T10:08:31.374Z,21.99
2018-09-25T10:09:31.354Z,22.04
2018-09-25T10:10:31.431Z,22.01
2018-09-25T10:11:31.463Z,22.01
2018-09-25T10:12:31.466Z,22.06
2018-09-25T10:13:31.518Z,21.99
2018-09-25T10:14:31.508Z,22.02
2018-09-25T10:15:31.578Z,22.04
2018-09-25T10:16:31.860Z,22.05
2018-09-25T10:17:31.589Z,22.02
2018-09-25T10:18:31.674Z,22.05
2018-09-25T10:19:31.698Z,22.04
2018-09-25T10:20:31.680Z,22.05
2018-09-25T10:21:31.728Z,22.04
2018-09-25T10:22:31.755Z,21.98
2018-09-25T10:23:32.119Z,22.02
2018-09-25T10:24:31.858Z,22.12
2018-09-25T10:25:31.889Z,22.01
2018-09-25T10:26:31.865Z,22.01
2018-09-25T10:27:32.046Z,22.09
2018-09-25T10:28:31.985Z,22.09
2018-09-25T10:29:32.018Z,22.11
2018-09-25T10:30:32.292Z,22.09
2018-09-25T10:31:32.069Z,22.11
2018-09-25T10:32:32.115Z,22.09
2018-09-25T10:33:32.082Z,22.08
2018-09-25T10:34:32.115Z,22.17
2018-09-25T10:35:32.141Z,22.08
2018-09-25T10:36:32.254Z,22.08
2018-09-25T10:37:32.551Z,22.09
2018-09-25T10:38:32.287Z,22.15
2018-09-25T10:39:32.328Z,22.11
2018-09-25T10:40:32.324Z,22.12
2018-09-25T10:41:32.371Z,22.17
2018-09-25T10:43:32.443Z,22.24
2018-09-25T10:44:32.471Z,22.21
2018-09-25T10:45:32.488Z,22.20
2018-09-25T10:46:32.484Z,22.20
2018-09-25T10:47:32.563Z,22.24
2018-09-25T10:48:32.530Z,22.31
2018-09-25T10:49:33.742Z,22.30
2018-09-25T10:51:33.814Z,22.27
2018-09-25T10:52:33.237Z,22.29
2018-09-25T10:53:33.299Z,22.27
2018-09-25T10:54:33.194Z,22.31
2018-09-25T10:55:32.807Z,22.27
2018-09-25T10:56:32.829Z,22.31
2018-09-25T10:57:32.838Z,22.31
2018-09-25T10:58:33.204Z,22.44
2018-09-25T10:59:32.920Z,22.36
2018-09-25T11:01:32.978Z,22.41
2018-09-25T11:02:32.958Z,22.42
2018-09-25T11:04:33.091Z,22.45
2018-09-25T11:05:33.119Z,22.39
2018-09-25T11:07:33.192Z,22.48
2018-09-25T11:08:33.197Z,22.49
2018-09-25T11:09:33.236Z,22.52
2018-09-25T11:10:33.255Z,22.48
2018-09-25T11:11:33.242Z,22.56
2018-09-25T11:12:33.365Z,22.52
2018-09-25T11:13:33.386Z,22.54
2018-09-25T11:15:33.457Z,22.59
2018-09-25T11:16:33.469Z,22.52
2018-09-25T11:17:33.444Z,22.60
2018-09-25T11:18:33.523Z,22.64
2018-09-25T11:19:33.574Z,22.56
2018-09-25T11:20:33.574Z,22.61
2018-09-25T11:21:33.604Z,22.54
2018-09-25T11:22:33.640Z,22.63
2018-09-25T11:23:33.909Z,22.61
2018-09-25T11:24:33.708Z,22.64
2018-09-25T11:25:33.851Z,22.57
2018-09-25T11:26:33.757Z,22.64
2018-09-25T11:27:33.796Z,22.70
2018-09-25T11:28:33.813Z,22.64
2018-09-25T11:29:33.830Z,22.61
2018-09-25T11:30:34.185Z,22.69
2018-09-25T11:31:33.912Z,22.63
2018-09-25T11:32:33.967Z,22.70
2018-09-25T11:33:33.932Z,22.64
2018-09-25T11:34:34.004Z,22.70
2018-09-25T11:35:34.072Z,22.67
2018-09-25T11:36:34.064Z,22.75
2018-09-25T11:37:34.099Z,22.67
2018-09-25T11:38:34.128Z,22.72
2018-09-25T11:39:34.167Z,22.70
2018-09-25T11:40:34.172Z,22.72
2018-09-25T11:41:34.346Z,22.72
2018-09-25T11:42:34.273Z,22.74
2018-09-25T11:43:34.582Z,22.76
2018-09-25T11:44:34.300Z,22.61
2018-09-25T11:45:34.724Z,22.75
2018-09-25T11:47:34.402Z,22.63
2018-09-25T11:48:34.463Z,22.69
2018-09-25T11:49:34.401Z,22.76
2018-09-25T11:50:34.845Z,22.74
2018-09-25T11:51:34.531Z,22.79
2018-09-25T11:52:34.564Z,22.75
2018-09-25T11:53:34.529Z,22.75
2018-09-25T11:54:34.625Z,22.72
2018-09-25T11:55:34.674Z,22.70
2018-09-25T11:56:34.679Z,22.70
2018-09-25T11:57:35.035Z,22.78
2018-09-25T11:58:34.822Z,22.74
2018-09-25T11:59:34.868Z,22.67
2018-09-25T12:01:34.828Z,22.75
2018-09-25T12:02:34.820Z,22.84
2018-09-25T12:03:34.911Z,22.74
2018-09-25T12:04:36.158Z,22.72
2018-09-25T12:05:34.968Z,22.82
2018-09-25T12:06:34.989Z,22.79
2018-09-25T12:07:35.010Z,22.78
2018-09-25T12:08:35.207Z,22.76
2018-09-25T12:09:35.086Z,22.75
2018-09-25T12:10:35.056Z,22.81
2018-09-25T12:11:35.450Z,22.81
2018-09-25T12:12:35.165Z,22.86
2018-09-25T12:13:35.228Z,22.81
2018-09-25T12:14:35.256Z,22.89
2018-09-25T12:15:35.283Z,22.84
2018-09-25T12:16:35.295Z,22.84
2018-09-25T12:17:35.341Z,22.85
2018-09-25T12:18:35.654Z,22.85
2018-09-25T12:19:35.398Z,22.88
2018-09-25T12:20:35.407Z,22.89
2018-09-25T12:21:35.441Z,22.89
2018-09-25T12:22:35.489Z,22.82
2018-09-25T12:23:35.587Z,22.89
2018-09-25T12:24:35.495Z,22.82
2018-09-25T12:25:35.602Z,22.84
2018-09-25T12:26:35.608Z,22.84
2018-09-25T12:27:35.655Z,22.85
2018-09-25T12:28:35.625Z,22.85
2018-09-25T12:29:35.710Z,22.86
2018-09-25T12:30:35.747Z,22.85
2018-09-25T12:31:35.751Z,22.88
2018-09-25T12:32:35.822Z,22.89
2018-09-25T12:33:35.830Z,22.84
2018-09-25T12:34:35.863Z,22.85
2018-09-25T12:35:35.903Z,22.96
2018-09-25T12:36:35.923Z,22.85
2018-09-25T12:37:35.936Z,22.86
2018-09-25T12:39:36.015Z,22.84
2018-09-25T12:41:36.075Z,22.82
2018-09-25T12:42:36.171Z,22.94
2018-09-25T12:43:36.134Z,22.84
2018-09-25T12:44:36.187Z,22.84
2018-09-25T12:45:36.208Z,22.82
2018-09-25T12:46:36.233Z,22.93
2018-09-25T12:47:36.251Z,22.93
2018-09-25T12:48:36.294Z,22.97
2018-09-25T12:49:36.612Z,22.85
2018-09-25T12:50:36.363Z,22.94
2018-09-25T12:51:36.449Z,22.96
2018-09-25T12:52:36.490Z,22.91
2018-09-25T12:53:36.443Z,22.89
2018-09-25T12:54:36.480Z,22.93
2018-09-25T12:55:36.484Z,23.01
2018-09-25T12:56:36.839Z,22.91
2018-09-25T12:57:36.543Z,22.94
2018-09-25T12:58:36.598Z,22.93
2018-09-25T12:59:36.648Z,22.97
2018-09-25T13:00:36.665Z,22.99
2018-09-25T13:01:36.653Z,22.97
2018-09-25T13:02:36.755Z,23.00
2018-09-25T13:03:36.774Z,23.01
2018-09-25T13:04:36.744Z,22.94
2018-09-25T13:05:36.818Z,22.97
2018-09-25T13:06:36.800Z,22.99
2018-09-25T13:07:37.000Z,23.01
2018-09-25T13:08:36.965Z,22.99
2018-09-25T13:09:37.266Z,23.01
2018-09-25T13:10:36.989Z,23.09